createdAt,value
2018-07-09T00:02:10.967Z,100542.77
2018-07-09T00:07:14.630Z,100546.45
2018-07-09T00:12:18.283Z,100538.43
2018-07-09T00:17:22.552Z,100546.45
2018-07-09T00:22:26.285Z,100535.48
2018-07-09T00:27:30.029Z,100537.53
2018-07-09T00:32:33.772Z,100539.36
2018-07-09T00:37:38.168Z,100543.66
2018-07-09T00:42:41.907Z,100538.08
2018-07-09T00:47:45.682Z,100547.73
2018-07-09T00:52:49.495Z,100551.32
2018-07-09T00:57:53.199Z,100544.51
2018-07-09T01:02:56.890Z,100539.50
2018-07-09T01:08:00.557Z,100536.28
2018-07-09T01:13:04.266Z,100542.73
2018-07-09T01:18:08.653Z,100540.45
2018-07-09T01:23:12.320Z,100514.81
2018-07-09T01:28:16.253Z,100531.87
2018-07-09T01:33:19.943Z,100523.86
2018-07-09T01:38:24.362Z,100517.93
2018-07-09T01:43:28.048Z,100514.09
2018-07-09T01:48:31.724Z,100516.45
2018-07-09T01:53:35.394Z,100507.79
2018-07-09T01:58:39.134Z,100510.25
2018-07-09T02:03:42.831Z,100512.66
2018-07-09T02:08:46.459Z,100504.06
2018-07-09T02:13:50.128Z,100508.19
2018-07-09T02:18:54.423Z,100507.48
2018-07-09T02:23:58.084Z,100508.27
2018-07-09T02:29:01.760Z,100511.57
2018-07-09T02:34:05.571Z,100511.36
2018-07-09T02:39:09.255Z,100506.84
2018-07-09T02:44:13.770Z,100507.44
2018-07-09T02:49:17.614Z,100522.12
2018-07-09T02:54:21.217Z,100525.81
2018-07-09T02:59:24.923Z,100525.52
2018-07-09T03:04:28.598Z,100521.55
2018-07-09T03:09:32.280Z,100521.61
2018-07-09T03:14:36.091Z,100521.70
2018-07-09T03:19:39.786Z,100531.13
2018-07-09T03:24:43.692Z,100534.70
2018-07-09T03:29:47.399Z,100546.25
2018-07-09T03:34:51.033Z,100548.63
2018-07-09T03:39:54.685Z,100538.16
2018-07-09T03:44:58.375Z,100545.17
2018-07-09T03:50:05.459Z,100556.78
2018-07-09T03:55:09.211Z,100562.77
2018-07-09T04:00:12.888Z,100566.77
2018-07-09T04:05:16.539Z,100563.73
2018-07-09T04:10:20.172Z,100561.40
2018-07-09T04:15:23.822Z,100579.78
2018-07-09T04:20:27.459Z,100579.55
2018-07-09T04:25:31.111Z,100576.90
2018-07-09T04:30:34.827Z,100587.95
2018-07-09T04:35:38.479Z,100584.69
2018-07-09T04:40:42.171Z,100587.00
2018-07-09T04:45:45.854Z,100580.40
2018-07-09T04:50:49.511Z,100586.23
2018-07-09T04:55:53.252Z,100573.05
2018-07-09T05:00:57.086Z,100576.47
2018-07-09T05:06:00.807Z,100583.73
2018-07-09T05:11:04.497Z,100579.98
2018-07-09T05:16:08.224Z,100587.28
2018-07-09T05:21:11.914Z,100582.84
2018-07-09T05:26:15.623Z,100590.13
2018-07-09T05:31:19.281Z,100581.27
2018-07-09T05:36:22.958Z,100583.41
2018-07-09T05:41:26.689Z,100582.16
2018-07-09T05:46:30.403Z,100577.39
2018-07-09T05:51:34.099Z,100578.90
2018-07-09T05:56:37.746Z,100579.25
2018-07-09T06:01:41.482Z,100588.69
2018-07-09T06:06:45.146Z,100588.72
2018-07-09T06:11:48.817Z,100593.55
2018-07-09T06:16:52.507Z,100587.22
2018-07-09T06:21:56.122Z,100583.95
2018-07-09T06:26:59.766Z,100592.26
2018-07-09T06:32:03.470Z,100588.11
2018-07-09T06:37:07.205Z,100590.13
2018-07-09T06:42:10.885Z,100595.33
2018-07-09T06:47:14.608Z,100590.92
2018-07-09T06:52:18.255Z,100579.78
2018-07-09T06:57:21.963Z,100579.06
2018-07-09T07:02:25.711Z,100577.96
2018-07-09T07:07:29.331Z,100566.56
2018-07-09T07:12:33.038Z,100567.77
2018-07-09T07:17:37.132Z,100565.51
2018-07-09T07:22:40.856Z,100574.48
2018-07-09T07:27:45.035Z,100573.88
2018-07-09T07:32:48.844Z,100570.91
2018-07-09T07:37:52.570Z,100565.98
2018-07-09T07:42:56.190Z,100570.83
2018-07-09T07:47:59.948Z,100576.79
2018-07-09T07:53:03.540Z,100568.50
2018-07-09T07:58:09.171Z,100571.53
2018-07-09T08:03:12.895Z,100559.02
2018-07-09T08:08:16.506Z,100556.91
2018-07-09T08:13:28.500Z,100549.42
2018-07-09T08:18:24.036Z,100553.44
2018-07-09T08:23:27.833Z,100545.86
2018-07-09T08:28:31.430Z,100553.06
2018-07-09T08:33:35.093Z,100547.00
2018-07-09T08:38:39.292Z,100552.39
2018-07-09T08:43:42.912Z,100544.98
2018-07-09T08:48:47.085Z,100548.62
2018-07-09T08:53:50.733Z,100544.98
2018-07-09T08:58:54.467Z,100545.64
2018-07-09T09:03:58.195Z,100541.13
2018-07-09T09:09:01.971Z,100539.80
2018-07-09T09:14:06.208Z,100538.71
2018-07-09T09:19:09.924Z,100539.48
2018-07-09T09:24:13.714Z,100535.27
2018-07-09T09:29:17.282Z,100541.69
2018-07-09T09:34:20.977Z,100538.16
2018-07-09T09:39:24.549Z,100528.73
2018-07-09T09:44:28.169Z,100521.01
2018-07-09T09:49:32.423Z,100530.52
2018-07-09T09:54:36.186Z,100515.97
2018-07-09T09:59:40.023Z,100518.06
2018-07-09T10:04:43.813Z,100518.22
2018-07-09T10:09:47.575Z,100513.67
2018-07-09T10:14:51.246Z,100505.02
2018-07-09T10:19:54.886Z,100501.23
2018-07-09T10:24:58.662Z,100495.73
2018-07-09T10:30:03.856Z,100481.00
2018-07-09T10:35:07.956Z,100486.92
2018-07-09T10:40:11.722Z,100483.19
2018-07-09T10:45:15.530Z,100482.22
2018-07-09T10:50:19.399Z,100491.28
2018-07-09T10:55:23.213Z,100479.31
2018-07-09T11:00:27.667Z,100467.02
2018-07-09T11:05:32.627Z,100473.42
2018-07-09T11:10:36.784Z,100469.26
2018-07-09T11:15:40.594Z,100480.13
2018-07-09T11:20:44.295Z,100475.48
2018-07-09T11:25:48.077Z,100473.28
2018-07-09T11:30:51.805Z,100472.34
2018-07-09T11:35:55.498Z,100465.28
2018-07-09T11:40:59.330Z,100458.22
2018-07-09T11:46:03.094Z,100468.48
2018-07-09T11:51:06.959Z,100466.56
2018-07-09T11:56:10.580Z,100460.30
2018-07-09T12:01:14.299Z,100454.02
2018-07-09T12:06:18.335Z,100446.52
2018-07-09T12:11:22.098Z,100441.77
2018-07-09T12:16:25.851Z,100442.51
2018-07-09T12:21:29.535Z,100425.86
2018-07-09T12:26:33.190Z,100408.83
2018-07-09T12:31:36.850Z,100408.42
2018-07-09T12:36:40.542Z,100405.36
2018-07-09T12:41:44.384Z,100400.84
2018-07-09T12:46:48.391Z,100393.02
2018-07-09T12:51:52.263Z,100392.44
2018-07-09T12:56:56.654Z,100391.25
2018-07-09T13:02:00.910Z,100381.58
2018-07-09T13:07:06.116Z,100373.96
2018-07-09T13:12:10.804Z,100371.78
2018-07-09T13:17:15.054Z,100369.82
2018-07-09T13:22:19.073Z,100361.61
2018-07-09T13:27:22.788Z,100360.89
2018-07-09T13:32:26.546Z,100349.70
2018-07-09T13:37:31.071Z,100345.77
2018-07-09T13:42:34.818Z,100340.47
2018-07-09T13:47:38.506Z,100329.42
2018-07-09T13:52:42.194Z,100324.38
2018-07-09T13:57:45.902Z,100323.52
2018-07-09T14:02:49.626Z,100319.96
2018-07-09T14:07:54.412Z,100313.56
2018-07-09T14:13:11.813Z,100309.64
2018-07-09T14:18:15.741Z,100309.28
2018-07-09T14:23:20.081Z,100297.48
2018-07-09T14:28:24.517Z,100293.16
2018-07-09T14:33:28.529Z,100275.36
2018-07-09T14:38:33.074Z,100275.85
2018-07-09T14:43:36.924Z,100273.64
2018-07-09T14:48:41.049Z,100268.95
2018-07-09T14:53:44.805Z,100268.81
2018-07-09T14:58:48.505Z,100275.47
2018-07-09T15:03:52.888Z,100269.31
2018-07-09T15:08:57.632Z,100270.56
2018-07-09T15:14:02.289Z,100256.05
2018-07-09T15:19:06.039Z,100258.77
2018-07-09T15:24:09.787Z,100262.47
2018-07-09T15:29:13.602Z,100250.66
2018-07-09T15:34:17.853Z,100258.14
2018-07-09T15:39:21.786Z,100263.31
2018-07-09T15:44:25.508Z,100261.19
2018-07-09T15:49:29.300Z,100254.19
2018-07-09T15:54:33.839Z,100256.12
2018-07-09T15:59:38.009Z,100255.26
2018-07-09T16:04:42.262Z,100252.79
2018-07-09T16:09:46.155Z,100247.36
2018-07-09T16:14:49.866Z,100244.00
2018-07-09T16:19:53.553Z,100240.75
2018-07-09T16:24:58.410Z,100231.57
2018-07-09T16:30:05.083Z,100239.06
2018-07-09T16:35:10.285Z,100232.88
2018-07-09T16:40:14.060Z,100230.53
2018-07-09T16:45:17.743Z,100227.34
2018-07-09T16:50:21.721Z,100227.13
2018-07-09T17:00:34.507Z,100232.91
2018-07-09T17:05:38.859Z,100230.91
2018-07-09T17:10:43.671Z,100234.31
2018-07-09T17:15:48.568Z,100231.14
2018-07-09T17:20:52.337Z,100234.20
2018-07-09T17:25:56.037Z,100228.02
2018-07-09T17:30:59.911Z,100226.80
2018-07-09T17:36:03.614Z,100220.03
2018-07-09T17:41:07.625Z,100216.91
2018-07-09T17:46:11.309Z,100215.47
2018-07-09T17:51:15.329Z,100215.00
2018-07-09T17:56:19.024Z,100210.94
2018-07-09T18:01:25.626Z,100215.22
2018-07-09T18:06:29.350Z,100210.16
2018-07-09T18:11:33.093Z,100210.69
2018-07-09T18:16:36.791Z,100217.81
2018-07-09T18:21:40.512Z,100211.05
2018-07-09T18:26:44.351Z,100211.05
2018-07-09T18:31:48.630Z,100199.58
2018-07-09T18:36:52.390Z,100189.38
2018-07-09T18:41:56.175Z,100197.02
2018-07-09T18:46:59.856Z,100196.55
2018-07-09T18:52:04.772Z,100197.90
2018-07-09T18:57:09.292Z,100199.25
2018-07-09T19:02:13.245Z,100200.60
2018-07-09T19:07:22.690Z,100208.73
2018-07-09T19:12:30.773Z,100201.23
2018-07-09T19:18:12.555Z,100203.59
2018-07-09T19:23:15.148Z,100206.91
2018-07-09T19:28:17.766Z,100210.86
2018-07-09T19:33:20.254Z,100213.56
2018-07-09T19:38:22.780Z,100213.17
2018-07-09T19:43:25.400Z,100215.83
2018-07-09T19:48:28.884Z,100226.22
2018-07-09T21:21:26.687Z,100214.42
2018-07-09T21:47:46.295Z,100243.59
